<?xml version="1.0" encoding="UTF-8" standalone="no" ?>
<gpx xmlns="http://www.topografix.com/GPX/1/1" xmlns:xsi="http://www.w3.org/2001/XMLSchema-instance" xsi:schemaLocation="http://www.topografix.com/GPX/1/1 http://www.topografix.com/GPX/1/1/gpx.xsd" version="1.1" creator="VisuGPX - https://www.visugpx.com">
  <metadata>
    <name>Montaud</name>
    <desc><![CDATA[Montée au décollage de Montaud]]></desc>
  </metadata>
  <wpt lat="45.26383" lon="5.56625">
    <ele>682</ele>
    <name><![CDATA[Point de passage 1]]></name>
    <type><![CDATA[GENERIC]]></type>
  </wpt>
  <wpt lat="45.2448" lon="5.57499">
    <ele>1277</ele>
    <name><![CDATA[Point de passage 2]]></name>
    <type><![CDATA[GENERIC]]></type>
  </wpt>
  <trk>
    <name><![CDATA[Montaud]]></name>
    <trkseg>
      <trkpt lat="45.26383" lon="5.56625">
        <ele>682</ele>
        <time>2026-05-16T13:41:17.000Z</time>
      </trkpt>
      <trkpt lat="45.26381" lon="5.56614">
        <ele>682</ele>
        <time>2026-05-16T13:41:23.000Z</time>
      </trkpt>
      <trkpt lat="45.26365" lon="5.56598">
        <ele>683</ele>
        <time>2026-05-16T13:42:59.000Z</time>
      </trkpt>
      <trkpt lat="45.26344" lon="5.56589">
        <ele>684</ele>
        <time>2026-05-16T13:43:20.000Z</time>
      </trkpt>
      <trkpt lat="45.26322" lon="5.5658">
        <ele>685</ele>
        <time>2026-05-16T13:43:41.000Z</time>
      </trkpt>
      <trkpt lat="45.26308" lon="5.56557">
        <ele>691</ele>
        <time>2026-05-16T13:44:02.000Z</time>
      </trkpt>
      <trkpt lat="45.2631" lon="5.56525">
        <ele>695</ele>
        <time>2026-05-16T13:44:23.000Z</time>
      </trkpt>
      <trkpt lat="45.26317" lon="5.56495">
        <ele>694</ele>
        <time>2026-05-16T13:44:43.000Z</time>
      </trkpt>
      <trkpt lat="45.26321" lon="5.5646">
        <ele>695</ele>
        <time>2026-05-16T13:45:04.000Z</time>
      </trkpt>
      <trkpt lat="45.26328" lon="5.56426">
        <ele>696</ele>
        <time>2026-05-16T13:45:25.000Z</time>
      </trkpt>
      <trkpt lat="45.26334" lon="5.56394">
        <ele>698</ele>
        <time>2026-05-16T13:45:46.000Z</time>
      </trkpt>
      <trkpt lat="45.26336" lon="5.56362">
        <ele>702</ele>
        <time>2026-05-16T13:46:07.000Z</time>
      </trkpt>
      <trkpt lat="45.26335" lon="5.56328">
        <ele>707</ele>
        <time>2026-05-16T13:46:34.000Z</time>
      </trkpt>
      <trkpt lat="45.26327" lon="5.56296">
        <ele>716</ele>
        <time>2026-05-16T13:47:16.000Z</time>
      </trkpt>
      <trkpt lat="45.26317" lon="5.56267">
        <ele>722</ele>
        <time>2026-05-16T13:47:55.000Z</time>
      </trkpt>
      <trkpt lat="45.2631" lon="5.56234">
        <ele>729</ele>
        <time>2026-05-16T13:48:28.000Z</time>
      </trkpt>
      <trkpt lat="45.263" lon="5.56204">
        <ele>734</ele>
        <time>2026-05-16T13:49:10.000Z</time>
      </trkpt>
      <trkpt lat="45.26286" lon="5.56177">
        <ele>741</ele>
        <time>2026-05-16T13:49:49.000Z</time>
      </trkpt>
      <trkpt lat="45.26269" lon="5.56156">
        <ele>743</ele>
        <time>2026-05-16T13:50:16.000Z</time>
      </trkpt>
      <trkpt lat="45.26247" lon="5.56151">
        <ele>744</ele>
        <time>2026-05-16T13:51:22.000Z</time>
      </trkpt>
      <trkpt lat="45.26225" lon="5.56159">
        <ele>746</ele>
        <time>2026-05-16T13:51:43.000Z</time>
      </trkpt>
      <trkpt lat="45.26204" lon="5.56171">
        <ele>749</ele>
        <time>2026-05-16T13:52:07.000Z</time>
      </trkpt>
      <trkpt lat="45.26194" lon="5.562">
        <ele>753</ele>
        <time>2026-05-16T13:52:31.000Z</time>
      </trkpt>
      <trkpt lat="45.26198" lon="5.56234">
        <ele>758</ele>
        <time>2026-05-16T13:53:07.000Z</time>
      </trkpt>
      <trkpt lat="45.26201" lon="5.56267">
        <ele>763</ele>
        <time>2026-05-16T13:53:46.000Z</time>
      </trkpt>
      <trkpt lat="45.262" lon="5.56302">
        <ele>766</ele>
        <time>2026-05-16T13:54:19.000Z</time>
      </trkpt>
      <trkpt lat="45.26201" lon="5.56335">
        <ele>768</ele>
        <time>2026-05-16T13:54:46.000Z</time>
      </trkpt>
      <trkpt lat="45.26196" lon="5.56367">
        <ele>769</ele>
        <time>2026-05-16T13:55:10.000Z</time>
      </trkpt>
      <trkpt lat="45.26186" lon="5.56396">
        <ele>770</ele>
        <time>2026-05-16T13:55:31.000Z</time>
      </trkpt>
      <trkpt lat="45.26176" lon="5.56428">
        <ele>772</ele>
        <time>2026-05-16T13:55:58.000Z</time>
      </trkpt>
      <trkpt lat="45.26161" lon="5.56452">
        <ele>775</ele>
        <time>2026-05-16T13:56:16.000Z</time>
      </trkpt>
      <trkpt lat="45.26147" lon="5.56479">
        <ele>777</ele>
        <time>2026-05-16T13:56:40.000Z</time>
      </trkpt>
      <trkpt lat="45.2613" lon="5.56501">
        <ele>781</ele>
        <time>2026-05-16T13:57:04.000Z</time>
      </trkpt>
      <trkpt lat="45.26109" lon="5.56509">
        <ele>784</ele>
        <time>2026-05-16T13:57:34.000Z</time>
      </trkpt>
      <trkpt lat="45.26089" lon="5.56522">
        <ele>788</ele>
        <time>2026-05-16T13:58:01.000Z</time>
      </trkpt>
      <trkpt lat="45.26072" lon="5.56543">
        <ele>793</ele>
        <time>2026-05-16T13:58:28.000Z</time>
      </trkpt>
      <trkpt lat="45.26058" lon="5.56573">
        <ele>800</ele>
        <time>2026-05-16T13:58:52.000Z</time>
      </trkpt>
      <trkpt lat="45.26047" lon="5.56603">
        <ele>804</ele>
        <time>2026-05-16T13:59:22.000Z</time>
      </trkpt>
      <trkpt lat="45.26036" lon="5.56632">
        <ele>808</ele>
        <time>2026-05-16T13:59:58.000Z</time>
      </trkpt>
      <trkpt lat="45.26027" lon="5.56663">
        <ele>810</ele>
        <time>2026-05-16T14:00:31.000Z</time>
      </trkpt>
      <trkpt lat="45.26012" lon="5.56687">
        <ele>810</ele>
        <time>2026-05-16T14:01:01.000Z</time>
      </trkpt>
      <trkpt lat="45.2599" lon="5.56687">
        <ele>813</ele>
        <time>2026-05-16T14:01:25.000Z</time>
      </trkpt>
      <trkpt lat="45.25968" lon="5.56686">
        <ele>813</ele>
        <time>2026-05-16T14:01:49.000Z</time>
      </trkpt>
      <trkpt lat="45.25946" lon="5.56695">
        <ele>813</ele>
        <time>2026-05-16T14:02:04.000Z</time>
      </trkpt>
      <trkpt lat="45.25926" lon="5.56714">
        <ele>810</ele>
        <time>2026-05-16T14:02:25.000Z</time>
      </trkpt>
      <trkpt lat="45.25909" lon="5.56734">
        <ele>809</ele>
        <time>2026-05-16T14:02:43.000Z</time>
      </trkpt>
      <trkpt lat="45.25888" lon="5.56748">
        <ele>809</ele>
        <time>2026-05-16T14:03:04.000Z</time>
      </trkpt>
      <trkpt lat="45.25866" lon="5.5675">
        <ele>813</ele>
        <time>2026-05-16T14:03:31.000Z</time>
      </trkpt>
      <trkpt lat="45.25842" lon="5.56749">
        <ele>820</ele>
        <time>2026-05-16T14:03:58.000Z</time>
      </trkpt>
      <trkpt lat="45.25821" lon="5.56754">
        <ele>829</ele>
        <time>2026-05-16T14:04:52.000Z</time>
      </trkpt>
      <trkpt lat="45.258" lon="5.56767">
        <ele>838</ele>
        <time>2026-05-16T14:05:40.000Z</time>
      </trkpt>
      <trkpt lat="45.25779" lon="5.56787">
        <ele>846</ele>
        <time>2026-05-16T14:06:43.000Z</time>
      </trkpt>
      <trkpt lat="45.25759" lon="5.56806">
        <ele>849</ele>
        <time>2026-05-16T14:07:16.000Z</time>
      </trkpt>
      <trkpt lat="45.25736" lon="5.56812">
        <ele>852</ele>
        <time>2026-05-16T14:07:40.000Z</time>
      </trkpt>
      <trkpt lat="45.25713" lon="5.56813">
        <ele>854</ele>
        <time>2026-05-16T14:08:01.000Z</time>
      </trkpt>
      <trkpt lat="45.25689" lon="5.56811">
        <ele>854</ele>
        <time>2026-05-16T14:08:16.000Z</time>
      </trkpt>
      <trkpt lat="45.25667" lon="5.56804">
        <ele>854</ele>
        <time>2026-05-16T14:08:34.000Z</time>
      </trkpt>
      <trkpt lat="45.25645" lon="5.56794">
        <ele>854</ele>
        <time>2026-05-16T14:08:55.000Z</time>
      </trkpt>
      <trkpt lat="45.25623" lon="5.56784">
        <ele>856</ele>
        <time>2026-05-16T14:09:13.000Z</time>
      </trkpt>
      <trkpt lat="45.25601" lon="5.56778">
        <ele>856</ele>
        <time>2026-05-16T14:09:34.000Z</time>
      </trkpt>
      <trkpt lat="45.25579" lon="5.56783">
        <ele>854</ele>
        <time>2026-05-16T14:09:52.000Z</time>
      </trkpt>
      <trkpt lat="45.2556" lon="5.56797">
        <ele>854</ele>
        <time>2026-05-16T14:10:13.000Z</time>
      </trkpt>
      <trkpt lat="45.25539" lon="5.56812">
        <ele>855</ele>
        <time>2026-05-16T14:10:31.000Z</time>
      </trkpt>
      <trkpt lat="45.25521" lon="5.56834">
        <ele>857</ele>
        <time>2026-05-16T14:10:55.000Z</time>
      </trkpt>
      <trkpt lat="45.25506" lon="5.5686">
        <ele>863</ele>
        <time>2026-05-16T14:11:23.000Z</time>
      </trkpt>
      <trkpt lat="45.25489" lon="5.56882">
        <ele>868</ele>
        <time>2026-05-16T14:11:52.000Z</time>
      </trkpt>
      <trkpt lat="45.25468" lon="5.56897">
        <ele>873</ele>
        <time>2026-05-16T14:12:31.000Z</time>
      </trkpt>
      <trkpt lat="45.25445" lon="5.56906">
        <ele>877</ele>
        <time>2026-05-16T14:13:01.000Z</time>
      </trkpt>
      <trkpt lat="45.25424" lon="5.56919">
        <ele>883</ele>
        <time>2026-05-16T14:13:37.000Z</time>
      </trkpt>
      <trkpt lat="45.25402" lon="5.56927">
        <ele>886</ele>
        <time>2026-05-16T14:14:04.000Z</time>
      </trkpt>
      <trkpt lat="45.25379" lon="5.56927">
        <ele>888</ele>
        <time>2026-05-16T14:14:40.000Z</time>
      </trkpt>
      <trkpt lat="45.25357" lon="5.5692">
        <ele>890</ele>
        <time>2026-05-16T14:15:03.000Z</time>
      </trkpt>
      <trkpt lat="45.25334" lon="5.56912">
        <ele>893</ele>
        <time>2026-05-16T14:15:25.000Z</time>
      </trkpt>
      <trkpt lat="45.25312" lon="5.56902">
        <ele>897</ele>
        <time>2026-05-16T14:15:54.000Z</time>
      </trkpt>
      <trkpt lat="45.25289" lon="5.56893">
        <ele>903</ele>
        <time>2026-05-16T14:16:24.000Z</time>
      </trkpt>
      <trkpt lat="45.25267" lon="5.56898">
        <ele>910</ele>
        <time>2026-05-16T14:16:48.000Z</time>
      </trkpt>
      <trkpt lat="45.25248" lon="5.56913">
        <ele>916</ele>
        <time>2026-05-16T14:17:18.000Z</time>
      </trkpt>
      <trkpt lat="45.25228" lon="5.5692">
        <ele>921</ele>
        <time>2026-05-16T14:18:03.000Z</time>
      </trkpt>
      <trkpt lat="45.25215" lon="5.56896">
        <ele>928</ele>
        <time>2026-05-16T14:18:48.000Z</time>
      </trkpt>
      <trkpt lat="45.25194" lon="5.56885">
        <ele>935</ele>
        <time>2026-05-16T14:19:42.000Z</time>
      </trkpt>
      <trkpt lat="45.25172" lon="5.56877">
        <ele>941</ele>
        <time>2026-05-16T14:20:48.000Z</time>
      </trkpt>
      <trkpt lat="45.25149" lon="5.56875">
        <ele>944</ele>
        <time>2026-05-16T14:21:27.000Z</time>
      </trkpt>
      <trkpt lat="45.25127" lon="5.56879">
        <ele>946</ele>
        <time>2026-05-16T14:22:00.000Z</time>
      </trkpt>
      <trkpt lat="45.25108" lon="5.56896">
        <ele>950</ele>
        <time>2026-05-16T14:22:27.000Z</time>
      </trkpt>
      <trkpt lat="45.25087" lon="5.56917">
        <ele>953</ele>
        <time>2026-05-16T14:22:57.000Z</time>
      </trkpt>
      <trkpt lat="45.25066" lon="5.56934">
        <ele>959</ele>
        <time>2026-05-16T14:23:27.000Z</time>
      </trkpt>
      <trkpt lat="45.25046" lon="5.5695">
        <ele>967</ele>
        <time>2026-05-16T14:24:09.000Z</time>
      </trkpt>
      <trkpt lat="45.25024" lon="5.56953">
        <ele>973</ele>
        <time>2026-05-16T14:24:57.000Z</time>
      </trkpt>
      <trkpt lat="45.25003" lon="5.56964">
        <ele>977</ele>
        <time>2026-05-16T14:25:54.000Z</time>
      </trkpt>
      <trkpt lat="45.2498" lon="5.56976">
        <ele>980</ele>
        <time>2026-05-16T14:26:42.000Z</time>
      </trkpt>
      <trkpt lat="45.24959" lon="5.56988">
        <ele>984</ele>
        <time>2026-05-16T14:27:12.000Z</time>
      </trkpt>
      <trkpt lat="45.24937" lon="5.57">
        <ele>987</ele>
        <time>2026-05-16T14:27:36.000Z</time>
      </trkpt>
      <trkpt lat="45.24918" lon="5.57017">
        <ele>989</ele>
        <time>2026-05-16T14:28:00.000Z</time>
      </trkpt>
      <trkpt lat="45.249" lon="5.57039">
        <ele>992</ele>
        <time>2026-05-16T14:28:19.000Z</time>
      </trkpt>
      <trkpt lat="45.24878" lon="5.57059">
        <ele>996</ele>
        <time>2026-05-16T14:28:49.000Z</time>
      </trkpt>
      <trkpt lat="45.24856" lon="5.57068">
        <ele>998</ele>
        <time>2026-05-16T14:29:07.000Z</time>
      </trkpt>
      <trkpt lat="45.24833" lon="5.5707">
        <ele>999</ele>
        <time>2026-05-16T14:29:25.000Z</time>
      </trkpt>
      <trkpt lat="45.24809" lon="5.57065">
        <ele>998</ele>
        <time>2026-05-16T14:29:46.000Z</time>
      </trkpt>
      <trkpt lat="45.24789" lon="5.57045">
        <ele>994</ele>
        <time>2026-05-16T14:30:22.000Z</time>
      </trkpt>
      <trkpt lat="45.2478" lon="5.57013">
        <ele>989</ele>
        <time>2026-05-16T14:30:40.000Z</time>
      </trkpt>
      <trkpt lat="45.24768" lon="5.56983">
        <ele>987</ele>
        <time>2026-05-16T14:31:01.000Z</time>
      </trkpt>
      <trkpt lat="45.24752" lon="5.5696">
        <ele>989</ele>
        <time>2026-05-16T14:31:16.000Z</time>
      </trkpt>
      <trkpt lat="45.24734" lon="5.56944">
        <ele>991</ele>
        <time>2026-05-16T14:31:28.000Z</time>
      </trkpt>
      <trkpt lat="45.24717" lon="5.5696">
        <ele>997</ele>
        <time>2026-05-16T14:32:25.000Z</time>
      </trkpt>
      <trkpt lat="45.24694" lon="5.56969">
        <ele>1008</ele>
        <time>2026-05-16T14:33:16.000Z</time>
      </trkpt>
      <trkpt lat="45.2467" lon="5.56976">
        <ele>1021</ele>
        <time>2026-05-16T14:34:22.000Z</time>
      </trkpt>
      <trkpt lat="45.2465" lon="5.56987">
        <ele>1029</ele>
        <time>2026-05-16T14:35:16.000Z</time>
      </trkpt>
      <trkpt lat="45.24628" lon="5.56982">
        <ele>1038</ele>
        <time>2026-05-16T14:36:01.000Z</time>
      </trkpt>
      <trkpt lat="45.2461" lon="5.5696">
        <ele>1049</ele>
        <time>2026-05-16T14:37:34.000Z</time>
      </trkpt>
      <trkpt lat="45.24592" lon="5.56936">
        <ele>1059</ele>
        <time>2026-05-16T14:38:10.000Z</time>
      </trkpt>
      <trkpt lat="45.24581" lon="5.56911">
        <ele>1068</ele>
        <time>2026-05-16T14:38:58.000Z</time>
      </trkpt>
      <trkpt lat="45.24587" lon="5.56883">
        <ele>1074</ele>
        <time>2026-05-16T14:40:22.000Z</time>
      </trkpt>
      <trkpt lat="45.24596" lon="5.56854">
        <ele>1080</ele>
        <time>2026-05-16T14:41:01.000Z</time>
      </trkpt>
      <trkpt lat="45.24606" lon="5.56826">
        <ele>1083</ele>
        <time>2026-05-16T14:41:58.000Z</time>
      </trkpt>
      <trkpt lat="45.24608" lon="5.56794">
        <ele>1086</ele>
        <time>2026-05-16T14:42:40.000Z</time>
      </trkpt>
      <trkpt lat="45.24601" lon="5.56764">
        <ele>1092</ele>
        <time>2026-05-16T14:43:28.000Z</time>
      </trkpt>
      <trkpt lat="45.24588" lon="5.56736">
        <ele>1102</ele>
        <time>2026-05-16T14:44:10.000Z</time>
      </trkpt>
      <trkpt lat="45.24586" lon="5.56704">
        <ele>1104</ele>
        <time>2026-05-16T14:44:58.000Z</time>
      </trkpt>
      <trkpt lat="45.24579" lon="5.56673">
        <ele>1114</ele>
        <time>2026-05-16T14:45:46.000Z</time>
      </trkpt>
      <trkpt lat="45.24589" lon="5.56643">
        <ele>1116</ele>
        <time>2026-05-16T14:46:22.000Z</time>
      </trkpt>
      <trkpt lat="45.2459" lon="5.56611">
        <ele>1124</ele>
        <time>2026-05-16T14:47:04.000Z</time>
      </trkpt>
      <trkpt lat="45.24597" lon="5.5658">
        <ele>1130</ele>
        <time>2026-05-16T14:47:49.000Z</time>
      </trkpt>
      <trkpt lat="45.24612" lon="5.56556">
        <ele>1132</ele>
        <time>2026-05-16T14:48:19.000Z</time>
      </trkpt>
      <trkpt lat="45.24617" lon="5.56522">
        <ele>1137</ele>
        <time>2026-05-16T14:48:52.000Z</time>
      </trkpt>
      <trkpt lat="45.24621" lon="5.56489">
        <ele>1142</ele>
        <time>2026-05-16T14:49:22.000Z</time>
      </trkpt>
      <trkpt lat="45.24628" lon="5.56456">
        <ele>1145</ele>
        <time>2026-05-16T14:50:13.000Z</time>
      </trkpt>
      <trkpt lat="45.24631" lon="5.56424">
        <ele>1148</ele>
        <time>2026-05-16T14:50:55.000Z</time>
      </trkpt>
      <trkpt lat="45.24623" lon="5.56395">
        <ele>1156</ele>
        <time>2026-05-16T14:51:19.000Z</time>
      </trkpt>
      <trkpt lat="45.24617" lon="5.56364">
        <ele>1163</ele>
        <time>2026-05-16T14:52:04.000Z</time>
      </trkpt>
      <trkpt lat="45.24612" lon="5.56334">
        <ele>1163</ele>
        <time>2026-05-16T14:52:46.000Z</time>
      </trkpt>
      <trkpt lat="45.24594" lon="5.56316">
        <ele>1169</ele>
        <time>2026-05-16T14:53:25.000Z</time>
      </trkpt>
      <trkpt lat="45.24572" lon="5.56316">
        <ele>1175</ele>
        <time>2026-05-16T14:53:52.000Z</time>
      </trkpt>
      <trkpt lat="45.24549" lon="5.56324">
        <ele>1181</ele>
        <time>2026-05-16T14:54:28.000Z</time>
      </trkpt>
      <trkpt lat="45.24528" lon="5.56338">
        <ele>1189</ele>
        <time>2026-05-16T14:54:58.000Z</time>
      </trkpt>
      <trkpt lat="45.2451" lon="5.56355">
        <ele>1198</ele>
        <time>2026-05-16T14:55:28.000Z</time>
      </trkpt>
      <trkpt lat="45.2449" lon="5.5637">
        <ele>1203</ele>
        <time>2026-05-16T14:56:04.000Z</time>
      </trkpt>
      <trkpt lat="45.24471" lon="5.5639">
        <ele>1211</ele>
        <time>2026-05-16T14:56:55.000Z</time>
      </trkpt>
      <trkpt lat="45.24453" lon="5.56409">
        <ele>1216</ele>
        <time>2026-05-16T14:57:34.000Z</time>
      </trkpt>
      <trkpt lat="45.24439" lon="5.56432">
        <ele>1221</ele>
        <time>2026-05-16T14:58:13.000Z</time>
      </trkpt>
      <trkpt lat="45.24422" lon="5.56426">
        <ele>1222</ele>
        <time>2026-05-16T14:59:01.000Z</time>
      </trkpt>
      <trkpt lat="45.24413" lon="5.56447">
        <ele>1226</ele>
        <time>2026-05-16T15:00:13.000Z</time>
      </trkpt>
      <trkpt lat="45.24429" lon="5.56464">
        <ele>1229</ele>
        <time>2026-05-16T15:00:34.000Z</time>
      </trkpt>
      <trkpt lat="45.24454" lon="5.56461">
        <ele>1229</ele>
        <time>2026-05-16T15:00:55.000Z</time>
      </trkpt>
      <trkpt lat="45.24478" lon="5.56467">
        <ele>1230</ele>
        <time>2026-05-16T15:01:16.000Z</time>
      </trkpt>
      <trkpt lat="45.24483" lon="5.56496">
        <ele>1225</ele>
        <time>2026-05-16T15:01:37.000Z</time>
      </trkpt>
      <trkpt lat="45.24473" lon="5.56527">
        <ele>1226</ele>
        <time>2026-05-16T15:01:58.000Z</time>
      </trkpt>
      <trkpt lat="45.24456" lon="5.56553">
        <ele>1238</ele>
        <time>2026-05-16T15:02:16.000Z</time>
      </trkpt>
      <trkpt lat="45.24447" lon="5.56583">
        <ele>1242</ele>
        <time>2026-05-16T15:02:40.000Z</time>
      </trkpt>
      <trkpt lat="45.24441" lon="5.56614">
        <ele>1243</ele>
        <time>2026-05-16T15:03:01.000Z</time>
      </trkpt>
      <trkpt lat="45.24432" lon="5.56645">
        <ele>1247</ele>
        <time>2026-05-16T15:03:22.000Z</time>
      </trkpt>
      <trkpt lat="45.24425" lon="5.56676">
        <ele>1249</ele>
        <time>2026-05-16T15:03:43.000Z</time>
      </trkpt>
      <trkpt lat="45.24422" lon="5.56708">
        <ele>1250</ele>
        <time>2026-05-16T15:04:04.000Z</time>
      </trkpt>
      <trkpt lat="45.24421" lon="5.56743">
        <ele>1247</ele>
        <time>2026-05-16T15:04:25.000Z</time>
      </trkpt>
      <trkpt lat="45.24411" lon="5.56774">
        <ele>1252</ele>
        <time>2026-05-16T15:04:46.000Z</time>
      </trkpt>
      <trkpt lat="45.24394" lon="5.56797">
        <ele>1265</ele>
        <time>2026-05-16T15:05:07.000Z</time>
      </trkpt>
      <trkpt lat="45.24384" lon="5.5683">
        <ele>1263</ele>
        <time>2026-05-16T15:05:31.000Z</time>
      </trkpt>
      <trkpt lat="45.24379" lon="5.56863">
        <ele>1259</ele>
        <time>2026-05-16T15:05:49.000Z</time>
      </trkpt>
      <trkpt lat="45.24367" lon="5.56892">
        <ele>1265</ele>
        <time>2026-05-16T15:06:13.000Z</time>
      </trkpt>
      <trkpt lat="45.24348" lon="5.5691">
        <ele>1265</ele>
        <time>2026-05-16T15:06:37.000Z</time>
      </trkpt>
      <trkpt lat="45.24323" lon="5.56904">
        <ele>1276</ele>
        <time>2026-05-16T15:07:19.000Z</time>
      </trkpt>
      <trkpt lat="45.24298" lon="5.56902">
        <ele>1278</ele>
        <time>2026-05-16T15:07:40.000Z</time>
      </trkpt>
      <trkpt lat="45.24273" lon="5.56901">
        <ele>1277</ele>
        <time>2026-05-16T15:07:58.000Z</time>
      </trkpt>
      <trkpt lat="45.24247" lon="5.56907">
        <ele>1274</ele>
        <time>2026-05-16T15:08:16.000Z</time>
      </trkpt>
      <trkpt lat="45.24225" lon="5.56917">
        <ele>1271</ele>
        <time>2026-05-16T15:08:34.000Z</time>
      </trkpt>
      <trkpt lat="45.24206" lon="5.56937">
        <ele>1268</ele>
        <time>2026-05-16T15:08:49.000Z</time>
      </trkpt>
      <trkpt lat="45.24196" lon="5.56974">
        <ele>1266</ele>
        <time>2026-05-16T15:09:07.000Z</time>
      </trkpt>
      <trkpt lat="45.24195" lon="5.5701">
        <ele>1265</ele>
        <time>2026-05-16T15:09:25.000Z</time>
      </trkpt>
      <trkpt lat="45.24186" lon="5.57043">
        <ele>1269</ele>
        <time>2026-05-16T15:09:47.000Z</time>
      </trkpt>
      <trkpt lat="45.24195" lon="5.5708">
        <ele>1265</ele>
        <time>2026-05-16T15:10:04.000Z</time>
      </trkpt>
      <trkpt lat="45.24205" lon="5.5711">
        <ele>1265</ele>
        <time>2026-05-16T15:10:16.000Z</time>
      </trkpt>
      <trkpt lat="45.24214" lon="5.5714">
        <ele>1265</ele>
        <time>2026-05-16T15:10:37.000Z</time>
      </trkpt>
      <trkpt lat="45.24215" lon="5.57177">
        <ele>1267</ele>
        <time>2026-05-16T15:10:56.000Z</time>
      </trkpt>
      <trkpt lat="45.24216" lon="5.57209">
        <ele>1270</ele>
        <time>2026-05-16T15:11:13.000Z</time>
      </trkpt>
      <trkpt lat="45.24217" lon="5.57242">
        <ele>1273</ele>
        <time>2026-05-16T15:11:31.000Z</time>
      </trkpt>
      <trkpt lat="45.24218" lon="5.57274">
        <ele>1276</ele>
        <time>2026-05-16T15:11:52.000Z</time>
      </trkpt>
      <trkpt lat="45.24225" lon="5.57305">
        <ele>1276</ele>
        <time>2026-05-16T15:12:10.000Z</time>
      </trkpt>
      <trkpt lat="45.24236" lon="5.57333">
        <ele>1277</ele>
        <time>2026-05-16T15:12:28.000Z</time>
      </trkpt>
      <trkpt lat="45.24253" lon="5.57354">
        <ele>1275</ele>
        <time>2026-05-16T15:12:40.000Z</time>
      </trkpt>
      <trkpt lat="45.24272" lon="5.57378">
        <ele>1275</ele>
        <time>2026-05-16T15:12:58.000Z</time>
      </trkpt>
      <trkpt lat="45.24293" lon="5.57394">
        <ele>1277</ele>
        <time>2026-05-16T15:13:22.000Z</time>
      </trkpt>
      <trkpt lat="45.24316" lon="5.57399">
        <ele>1275</ele>
        <time>2026-05-16T15:13:34.000Z</time>
      </trkpt>
      <trkpt lat="45.24343" lon="5.57407">
        <ele>1275</ele>
        <time>2026-05-16T15:14:01.000Z</time>
      </trkpt>
      <trkpt lat="45.24365" lon="5.57423">
        <ele>1278</ele>
        <time>2026-05-16T15:14:12.000Z</time>
      </trkpt>
      <trkpt lat="45.24385" lon="5.57408">
        <ele>1270</ele>
        <time>2026-05-16T15:14:31.000Z</time>
      </trkpt>
      <trkpt lat="45.24405" lon="5.57426">
        <ele>1273</ele>
        <time>2026-05-16T15:14:49.000Z</time>
      </trkpt>
      <trkpt lat="45.24418" lon="5.57451">
        <ele>1278</ele>
        <time>2026-05-16T15:15:01.000Z</time>
      </trkpt>
      <trkpt lat="45.24443" lon="5.57465">
        <ele>1276</ele>
        <time>2026-05-16T15:15:22.000Z</time>
      </trkpt>
      <trkpt lat="45.24461" lon="5.57483">
        <ele>1276</ele>
        <time>2026-05-16T15:15:58.000Z</time>
      </trkpt>
      <trkpt lat="45.2448" lon="5.57499">
        <ele>1277</ele>
        <time>2026-05-16T15:21:13.000Z</time>
      </trkpt>
    </trkseg>
  </trk>
</gpx>